Loxahatchee, Florida
Current Conditions -  °F | °C
As of 9:53 AM on Friday 19 Dec 2014 (Local Time) from KPBI Reporting Station
Few Clouds Few Clouds  
Wind Chill: 72°   Ceiling: Unl
Heat Index: 72°   Visibility: 10mi
Dew Point: 55°   Wind: 0mph
Humidity: 55%   Direction: NA
Pressure: 30.11"   Gusts: NA
Location:  26.68°N, 80.28°W
Report Text: KPBI 191453Z 00000KT 10SM FEW040 FEW250 22/13 A3011 RMK AO2 SLP195 T02220128 51010
Loading
Personal Weather Stations






























Interactive Weather Map New forecast layout! Learn more

10-Day Weather Forecast

Advertisements
Track Severe Weather on mobile